createdAt,value
2018-04-10T00:00:11.104Z,0
2018-04-10T00:00:51.558Z,0
2018-04-10T00:01:32.072Z,0
2018-04-10T00:02:12.543Z,0
2018-04-10T00:02:53.065Z,0
2018-04-10T00:03:33.550Z,0
2018-04-10T00:04:14.085Z,0
2018-04-10T00:04:54.567Z,0
2018-04-10T00:05:35.091Z,0
2018-04-10T00:06:15.517Z,0
2018-04-10T00:06:56.035Z,0
2018-04-10T00:07:36.521Z,0
2018-04-10T00:08:17.034Z,0
2018-04-10T00:08:57.584Z,0
2018-04-10T00:09:38.041Z,0
2018-04-10T00:10:18.502Z,0
2018-04-10T00:10:59.011Z,0
2018-04-10T00:11:39.524Z,0
2018-04-10T00:12:19.992Z,0
2018-04-10T00:13:00.495Z,0
2018-04-10T00:13:40.952Z,0
2018-04-10T00:14:21.460Z,0
2018-04-10T00:15:01.967Z,0
2018-04-10T00:15:42.457Z,0
2018-04-10T00:16:22.935Z,0
2018-04-10T00:17:03.451Z,0
2018-04-10T00:17:43.943Z,0
2018-04-10T00:18:24.436Z,0
2018-04-10T00:19:04.901Z,0
2018-04-10T00:19:45.435Z,0
2018-04-10T00:20:25.949Z,0
2018-04-10T00:21:06.435Z,0
2018-04-10T00:21:46.887Z,0
2018-04-10T00:22:27.379Z,0
2018-04-10T00:23:07.843Z,0
2018-04-10T00:23:48.381Z,0
2018-04-10T00:24:28.912Z,0
2018-04-10T00:25:09.364Z,0
2018-04-10T00:25:49.839Z,0
2018-04-10T00:26:30.352Z,0
2018-04-10T00:27:10.848Z,0
2018-04-10T00:27:51.352Z,0
2018-04-10T00:28:31.861Z,0
2018-04-10T00:29:12.350Z,0
2018-04-10T00:29:52.836Z,0
2018-04-10T00:30:33.370Z,0
2018-04-10T00:31:13.813Z,0
2018-04-10T00:31:54.463Z,0
2018-04-10T00:32:34.956Z,0
2018-04-10T00:33:15.468Z,0
2018-04-10T00:33:55.990Z,0
2018-04-10T00:34:36.410Z,0
2018-04-10T00:35:16.913Z,0
2018-04-10T00:35:57.372Z,0
2018-04-10T00:36:37.855Z,0
2018-04-10T00:37:18.447Z,0
2018-04-10T00:37:58.988Z,0
2018-04-10T00:38:39.448Z,0
2018-04-10T00:39:19.946Z,0
2018-04-10T00:40:00.460Z,0
2018-04-10T00:40:40.911Z,0
2018-04-10T00:41:21.387Z,0
2018-04-10T00:42:01.907Z,0
2018-04-10T00:42:42.404Z,0
2018-04-10T00:43:22.890Z,0
2018-04-10T00:44:03.674Z,0
2018-04-10T00:44:44.121Z,0
2018-04-10T00:45:24.601Z,0
2018-04-10T00:46:05.126Z,0
2018-04-10T00:46:45.589Z,0
2018-04-10T00:47:26.111Z,0
2018-04-10T00:48:06.593Z,0
2018-04-10T00:48:47.129Z,0
2018-04-10T00:49:27.655Z,0
2018-04-10T00:50:08.145Z,0
2018-04-10T00:50:48.622Z,0
2018-04-10T00:51:29.141Z,0
2018-04-10T00:52:09.669Z,0
2018-04-10T00:52:50.196Z,0
2018-04-10T00:53:30.664Z,0
2018-04-10T00:54:11.113Z,0
2018-04-10T00:54:51.610Z,0
2018-04-10T00:55:32.152Z,0
2018-04-10T00:56:12.644Z,0
2018-04-10T00:56:53.220Z,0
2018-04-10T00:57:33.932Z,0
2018-04-10T00:58:14.392Z,0
2018-04-10T00:58:54.907Z,0
2018-04-10T00:59:35.382Z,0
2018-04-10T01:00:15.900Z,0
2018-04-10T01:00:56.387Z,0
2018-04-10T01:01:36.849Z,0
2018-04-10T01:02:17.348Z,0
2018-04-10T01:02:57.810Z,0
2018-04-10T01:03:38.373Z,0
2018-04-10T01:04:18.804Z,0
2018-04-10T01:04:59.287Z,0
2018-04-10T01:05:39.805Z,0
2018-04-10T01:06:20.287Z,0
2018-04-10T01:07:00.805Z,0
2018-04-10T01:07:41.287Z,0
2018-04-10T01:08:21.763Z,0
2018-04-10T01:09:02.252Z,0
2018-04-10T01:09:42.729Z,0
2018-04-10T01:10:23.270Z,0
2018-04-10T01:11:03.748Z,0
2018-04-10T01:11:44.231Z,0
2018-04-10T01:12:24.775Z,0
2018-04-10T01:13:05.284Z,0
2018-04-10T01:13:45.724Z,0
2018-04-10T01:14:26.276Z,0
2018-04-10T01:15:06.710Z,0
2018-04-10T01:15:47.226Z,0
2018-04-10T01:16:27.718Z,0
2018-04-10T01:17:08.132Z,0
2018-04-10T01:17:48.685Z,0
2018-04-10T01:18:29.175Z,0
2018-04-10T01:19:09.642Z,0
2018-04-10T01:19:50.179Z,0
2018-04-10T01:20:30.633Z,0
2018-04-10T01:21:11.132Z,0
2018-04-10T01:21:51.609Z,0
2018-04-10T01:22:32.084Z,0
2018-04-10T01:23:12.581Z,0
2018-04-10T01:23:53.091Z,0
2018-04-10T01:24:33.611Z,0
2018-04-10T01:25:14.099Z,0
2018-04-10T01:25:54.585Z,0
2018-04-10T01:26:35.083Z,0
2018-04-10T01:27:15.595Z,0
2018-04-10T01:27:56.075Z,0
2018-04-10T01:28:36.539Z,0
2018-04-10T01:29:17.028Z,0
2018-04-10T01:29:57.540Z,0
2018-04-10T01:30:38.008Z,0
2018-04-10T01:31:18.508Z,0
2018-04-10T01:31:59.052Z,0
2018-04-10T01:32:39.550Z,0
2018-04-10T01:33:20.017Z,0
2018-04-10T01:34:00.561Z,0
2018-04-10T01:34:41.009Z,0
2018-04-10T01:35:21.466Z,0
2018-04-10T01:36:02.043Z,0
2018-04-10T01:36:42.524Z,0
2018-04-10T01:37:22.990Z,0
2018-04-10T01:38:03.532Z,0
2018-04-10T01:38:43.965Z,0
2018-04-10T01:39:24.456Z,0
2018-04-10T01:40:04.990Z,0
2018-04-10T01:40:45.611Z,0
2018-04-10T01:41:26.102Z,0
2018-04-10T01:42:06.609Z,0
2018-04-10T01:42:47.114Z,0
2018-04-10T01:43:27.615Z,0
2018-04-10T01:44:08.090Z,0
2018-04-10T01:44:48.592Z,0
2018-04-10T01:45:29.058Z,0
2018-04-10T01:46:09.613Z,0
2018-04-10T01:46:50.121Z,0
2018-04-10T01:47:30.543Z,0
2018-04-10T01:48:11.038Z,0
2018-04-10T01:48:51.535Z,0
2018-04-10T01:49:32.358Z,0
2018-04-10T01:51:30.519Z,0
2018-04-10T01:52:11.005Z,0
2018-04-10T01:52:51.504Z,0
2018-04-10T01:53:31.996Z,0
2018-04-10T01:56:02.262Z,0
2018-04-10T01:56:42.786Z,0
2018-04-10T01:57:23.300Z,0
2018-04-10T01:58:03.799Z,0
2018-04-10T01:58:44.322Z,0
2018-04-10T01:59:24.767Z,0
2018-04-10T02:00:05.227Z,0
2018-04-10T02:00:45.689Z,0
2018-04-10T02:01:26.229Z,0
2018-04-10T02:02:06.680Z,0
2018-04-10T02:02:47.181Z,0
2018-04-10T02:03:27.697Z,0
2018-04-10T02:04:08.122Z,0
2018-04-10T02:04:48.644Z,0
2018-04-10T02:05:29.102Z,0
2018-04-10T02:06:09.615Z,0
2018-04-10T02:06:50.110Z,0
2018-04-10T02:07:30.587Z,0
2018-04-10T02:08:11.092Z,0
2018-04-10T02:08:51.539Z,0
2018-04-10T02:09:32.021Z,0
2018-04-10T02:10:12.509Z,0
2018-04-10T02:10:52.968Z,0
2018-04-10T02:11:33.433Z,0
2018-04-10T02:12:13.953Z,0
2018-04-10T02:12:54.480Z,0
2018-04-10T02:13:34.977Z,0
2018-04-10T02:14:15.420Z,0
2018-04-10T02:14:55.952Z,0
2018-04-10T02:15:36.443Z,0
2018-04-10T02:16:16.948Z,0
2018-04-10T02:16:57.420Z,0
2018-04-10T02:17:37.920Z,0
2018-04-10T02:18:18.398Z,0
2018-04-10T02:18:58.903Z,0
2018-04-10T02:19:39.328Z,0
2018-04-10T02:20:19.850Z,0
2018-04-10T02:21:00.316Z,0
2018-04-10T02:21:40.796Z,0
2018-04-10T02:22:21.252Z,0
2018-04-10T02:23:01.810Z,0
2018-04-10T02:23:42.298Z,0
2018-04-10T02:24:22.769Z,0
2018-04-10T02:25:03.339Z,0
2018-04-10T02:25:43.872Z,0
2018-04-10T02:26:24.352Z,0
2018-04-10T02:27:04.825Z,0
2018-04-10T02:27:45.348Z,0
2018-04-10T02:28:25.816Z,0
2018-04-10T02:29:06.347Z,0
2018-04-10T02:29:46.865Z,0
2018-04-10T02:30:27.340Z,0
2018-04-10T02:31:07.840Z,0
2018-04-10T02:31:48.341Z,0
2018-04-10T02:32:28.855Z,0
2018-04-10T02:33:09.304Z,0
2018-04-10T02:33:49.830Z,0
2018-04-10T02:34:30.360Z,0
2018-04-10T02:35:10.849Z,0
2018-04-10T02:35:51.305Z,0
2018-04-10T02:36:31.852Z,0
2018-04-10T02:37:12.339Z,0
2018-04-10T02:37:52.804Z,0
2018-04-10T02:38:33.368Z,0
2018-04-10T02:39:13.804Z,0
2018-04-10T02:39:54.309Z,0
2018-04-10T02:40:34.781Z,0
2018-04-10T02:41:15.311Z,0
2018-04-10T02:41:55.808Z,0
2018-04-10T02:42:36.297Z,0
2018-04-10T02:43:16.904Z,0
2018-04-10T02:43:57.337Z,0
2018-04-10T02:44:37.860Z,0
2018-04-10T02:45:18.333Z,0
2018-04-10T02:45:58.799Z,0
2018-04-10T02:46:39.310Z,0
2018-04-10T02:47:19.748Z,0
2018-04-10T02:48:00.272Z,0
2018-04-10T02:48:40.746Z,0
2018-04-10T02:49:21.279Z,0
2018-04-10T02:50:01.729Z,0
2018-04-10T02:50:42.224Z,0
2018-04-10T02:51:22.674Z,0
2018-04-10T02:52:03.188Z,0
2018-04-10T02:52:43.712Z,0
2018-04-10T02:53:24.175Z,0
2018-04-10T02:54:04.709Z,0
2018-04-10T02:54:45.170Z,0
2018-04-10T02:55:25.723Z,0
2018-04-10T02:56:06.128Z,0
2018-04-10T02:56:46.661Z,0
2018-04-10T02:57:27.100Z,0
2018-04-10T02:58:07.642Z,0
2018-04-10T02:58:48.112Z,0
2018-04-10T02:59:33.097Z,0
2018-04-10T03:00:13.539Z,0
2018-04-10T03:00:54.065Z,0
2018-04-10T03:01:34.597Z,0
2018-04-10T03:02:15.047Z,0
2018-04-10T03:02:55.565Z,0
2018-04-10T03:03:35.996Z,0
2018-04-10T03:04:16.489Z,0
2018-04-10T03:04:57.082Z,0
2018-04-10T03:05:37.561Z,0
2018-04-10T03:06:18.021Z,0
2018-04-10T03:06:58.531Z,0
2018-04-10T03:07:38.982Z,0
2018-04-10T03:08:19.471Z,0
2018-04-10T03:09:00.002Z,0
2018-04-10T03:09:40.492Z,0
2018-04-10T03:10:20.978Z,0
2018-04-10T03:11:01.520Z,0
2018-04-10T03:11:42.014Z,0
2018-04-10T03:12:22.499Z,0
2018-04-10T03:13:03.018Z,0
2018-04-10T03:13:43.478Z,0
2018-04-10T03:14:23.948Z,0
2018-04-10T03:15:04.416Z,0
2018-04-10T03:15:44.955Z,0
2018-04-10T03:16:25.423Z,0
2018-04-10T03:17:05.905Z,0
2018-04-10T03:17:46.383Z,0
2018-04-10T03:18:26.865Z,0
2018-04-10T03:19:07.399Z,0
2018-04-10T03:19:47.916Z,0
2018-04-10T03:20:28.468Z,0
2018-04-10T03:21:09.108Z,0
2018-04-10T03:21:49.640Z,0
2018-04-10T03:22:30.136Z,0
2018-04-10T03:23:10.596Z,0
2018-04-10T03:23:51.120Z,0
2018-04-10T03:24:31.589Z,0
2018-04-10T03:25:12.146Z,0
2018-04-10T03:25:52.636Z,0
2018-04-10T03:26:33.111Z,0
2018-04-10T03:27:13.609Z,0
2018-04-10T03:27:54.128Z,0
2018-04-10T03:28:34.622Z,0
2018-04-10T03:29:15.118Z,0
2018-04-10T03:29:55.574Z,0
2018-04-10T03:30:36.076Z,0
2018-04-10T03:31:16.558Z,0
2018-04-10T03:31:57.089Z,0
2018-04-10T03:32:37.570Z,0
2018-04-10T03:33:18.044Z,0
2018-04-10T03:33:58.566Z,0
2018-04-10T03:34:39.024Z,0
2018-04-10T03:35:19.552Z,0
2018-04-10T03:36:00.024Z,0
2018-04-10T03:36:40.559Z,0
2018-04-10T03:37:21.107Z,0
2018-04-10T03:38:01.764Z,0
2018-04-10T03:38:42.205Z,0
2018-04-10T03:39:22.677Z,0
2018-04-10T03:40:03.134Z,0
2018-04-10T03:40:43.669Z,0
2018-04-10T03:41:24.162Z,0
2018-04-10T03:42:04.594Z,0
2018-04-10T03:42:45.179Z,0
2018-04-10T03:43:25.641Z,0
2018-04-10T03:44:06.117Z,0
2018-04-10T03:44:46.586Z,0
2018-04-10T03:45:27.091Z,0
2018-04-10T03:46:07.617Z,0
2018-04-10T03:46:48.239Z,0
2018-04-10T03:47:28.689Z,0
2018-04-10T03:48:09.365Z,0
2018-04-10T03:48:49.690Z,0
2018-04-10T03:49:30.195Z,0
2018-04-10T03:50:10.694Z,0
2018-04-10T03:50:51.186Z,0
2018-04-10T03:51:31.635Z,0
2018-04-10T03:52:12.136Z,0
2018-04-10T03:52:52.814Z,0
2018-04-10T03:53:33.289Z,0
2018-04-10T03:54:13.792Z,0
2018-04-10T03:54:54.339Z,0
2018-04-10T03:55:34.856Z,0
2018-04-10T03:56:15.303Z,0
2018-04-10T03:56:55.850Z,0
2018-04-10T03:57:36.334Z,0
2018-04-10T03:58:16.813Z,0
2018-04-10T03:58:57.681Z,0
2018-04-10T03:59:37.859Z,0
2018-04-10T04:00:18.373Z,0
2018-04-10T04:00:58.920Z,0
2018-04-10T04:01:39.472Z,0
2018-04-10T04:02:20.043Z,0
2018-04-10T04:03:00.479Z,0
2018-04-10T04:03:40.991Z,0
2018-04-10T04:04:21.510Z,0
2018-04-10T04:05:01.984Z,0
2018-04-10T04:05:42.489Z,0
2018-04-10T04:06:23.041Z,0
2018-04-10T04:07:03.526Z,0
2018-04-10T04:07:43.961Z,0
2018-04-10T04:08:24.480Z,0
2018-04-10T04:09:05.044Z,0
2018-04-10T04:09:45.516Z,0
2018-04-10T04:10:26.040Z,0
2018-04-10T04:11:06.479Z,0
2018-04-10T04:11:47.021Z,0
2018-04-10T04:12:27.526Z,0
2018-04-10T04:13:07.973Z,0
2018-04-10T04:13:48.507Z,0
2018-04-10T04:14:28.968Z,0
2018-04-10T04:15:09.464Z,0
2018-04-10T04:15:49.957Z,0
2018-04-10T04:16:30.423Z,0
2018-04-10T04:17:10.973Z,4
2018-04-10T04:17:51.424Z,4
2018-04-10T04:18:31.908Z,4
2018-04-10T04:19:12.411Z,0
2018-04-10T04:19:52.906Z,0
2018-04-10T04:20:33.394Z,4
2018-04-10T04:21:13.906Z,4
2018-04-10T04:21:54.408Z,0
2018-04-10T04:22:34.861Z,4
2018-04-10T04:23:15.355Z,4
2018-04-10T04:23:55.833Z,4
2018-04-10T04:24:36.323Z,4
2018-04-10T04:25:16.854Z,4
2018-04-10T04:25:57.353Z,4
2018-04-10T04:26:37.843Z,8
2018-04-10T04:27:18.354Z,4
2018-04-10T04:27:58.853Z,8
2018-04-10T04:28:39.395Z,8
2018-04-10T04:29:19.903Z,8
2018-04-10T04:30:00.428Z,8
2018-04-10T04:30:40.864Z,8
2018-04-10T04:31:21.408Z,12
2018-04-10T04:32:01.857Z,8
2018-04-10T04:32:42.390Z,8
2018-04-10T04:33:22.859Z,12
2018-04-10T04:34:03.366Z,12
2018-04-10T04:34:43.917Z,12
2018-04-10T04:35:24.377Z,16
2018-04-10T04:36:04.925Z,16
2018-04-10T04:36:45.409Z,12
2018-04-10T04:37:25.903Z,20
2018-04-10T04:38:06.439Z,20
2018-04-10T04:38:46.910Z,20
2018-04-10T04:39:27.419Z,20
2018-04-10T04:40:07.979Z,24
2018-04-10T04:40:48.461Z,24
2018-04-10T04:41:28.963Z,28
2018-04-10T04:42:09.446Z,32
2018-04-10T04:42:49.950Z,32
2018-04-10T04:43:30.419Z,32
2018-04-10T04:44:10.935Z,36
2018-04-10T04:44:51.443Z,40
2018-04-10T04:45:31.873Z,44
2018-04-10T04:46:12.392Z,48
2018-04-10T04:46:52.875Z,52
2018-04-10T04:47:33.534Z,56
2018-04-10T04:50:02.667Z,72
2018-04-10T04:50:43.195Z,76
2018-04-10T04:51:23.715Z,84
2018-04-10T04:52:04.234Z,88
2018-04-10T04:52:44.917Z,96
2018-04-10T04:53:25.455Z,100
2018-04-10T04:54:05.956Z,108
2018-04-10T04:54:46.452Z,116
2018-04-10T04:55:26.967Z,120
2018-04-10T04:56:07.477Z,124
2018-04-10T04:56:47.985Z,132
2018-04-10T04:57:28.484Z,140
2018-04-10T04:58:09.017Z,148
2018-04-10T04:58:49.519Z,156
2018-04-10T04:59:30.036Z,164
2018-04-10T05:00:10.553Z,172
2018-04-10T05:00:51.087Z,180
2018-04-10T05:01:31.570Z,180
2018-04-10T05:02:12.093Z,200
2018-04-10T05:02:52.633Z,208
2018-04-10T05:03:33.083Z,220
2018-04-10T05:04:13.572Z,232
2018-04-10T05:04:54.080Z,240
2018-04-10T05:05:34.602Z,252
2018-04-10T05:06:15.128Z,268
2018-04-10T05:06:55.636Z,284
2018-04-10T05:07:36.160Z,300
2018-04-10T05:08:16.697Z,312
2018-04-10T05:08:57.200Z,328
2018-04-10T05:09:37.716Z,344
2018-04-10T05:10:18.229Z,360
2018-04-10T05:10:58.763Z,376
2018-04-10T05:11:39.273Z,396
2018-04-10T05:12:19.803Z,412
2018-04-10T05:13:00.370Z,428
2018-04-10T05:13:40.826Z,448
2018-04-10T05:14:21.318Z,464
2018-04-10T05:15:01.812Z,488
2018-04-10T05:15:42.391Z,508
2018-04-10T05:16:22.863Z,528
2018-04-10T05:17:03.643Z,548
2018-04-10T05:17:44.145Z,572
2018-04-10T05:18:24.657Z,596
2018-04-10T05:19:05.173Z,620
2018-04-10T05:19:45.699Z,640
2018-04-10T05:20:26.147Z,664
2018-04-10T05:21:06.637Z,688
2018-04-10T05:21:47.142Z,716
2018-04-10T05:22:27.736Z,744
2018-04-10T05:23:08.178Z,776
2018-04-10T05:23:48.677Z,804
2018-04-10T05:24:29.227Z,836
2018-04-10T05:25:09.679Z,864
2018-04-10T05:25:50.209Z,892
2018-04-10T05:26:30.688Z,920
2018-04-10T05:29:04.389Z,1028
2018-04-10T05:29:44.916Z,1056
2018-04-10T05:30:25.475Z,1080
2018-04-10T05:31:06.133Z,1104
2018-04-10T05:31:46.487Z,1124
2018-04-10T05:32:27.001Z,1148
2018-04-10T05:33:07.522Z,1164
2018-04-10T05:33:48.239Z,1184
2018-04-10T05:34:28.886Z,1196
2018-04-10T05:35:09.516Z,1212
2018-04-10T05:35:50.032Z,1220
2018-04-10T05:36:30.543Z,1232
2018-04-10T05:37:11.063Z,1244
2018-04-10T05:37:51.579Z,1256
2018-04-10T05:38:32.088Z,1272
2018-04-10T05:39:12.605Z,1284
2018-04-10T05:39:53.117Z,1300
2018-04-10T05:40:33.631Z,1320
2018-04-10T05:41:14.230Z,1344
2018-04-10T05:41:54.736Z,1372
2018-04-10T05:42:35.288Z,1400
2018-04-10T05:43:15.799Z,1428
2018-04-10T05:43:56.348Z,1456
2018-04-10T05:44:36.844Z,1488
2018-04-10T05:45:17.361Z,1520
2018-04-10T05:45:57.884Z,1548
2018-04-10T05:46:38.407Z,1580
2018-04-10T05:47:18.921Z,1612
2018-04-10T05:47:59.435Z,1652
2018-04-10T05:48:39.960Z,1692
2018-04-10T05:49:20.497Z,1732
2018-04-10T05:50:00.988Z,1784
2018-04-10T05:50:41.500Z,1828
2018-04-10T05:51:22.005Z,1872
2018-04-10T05:52:02.655Z,1912
2018-04-10T05:52:43.151Z,1944
2018-04-10T05:53:23.682Z,1964
2018-04-10T05:54:04.186Z,1980
2018-04-10T05:54:44.702Z,1992
2018-04-10T05:55:25.253Z,1996
2018-04-10T05:56:05.781Z,2000
2018-04-10T05:56:46.304Z,1996
2018-04-10T05:57:26.831Z,1992
2018-04-10T05:58:07.304Z,1992
2018-04-10T05:58:47.827Z,2004
2018-04-10T05:59:28.342Z,2016
2018-04-10T06:00:08.867Z,2040
2018-04-10T06:00:49.392Z,2080
2018-04-10T06:01:29.912Z,2132
2018-04-10T06:02:10.410Z,2192
2018-04-10T06:02:50.894Z,2264
2018-04-10T06:03:31.404Z,2344
2018-04-10T06:04:11.919Z,2428
2018-04-10T06:04:52.421Z,2516
2018-04-10T06:05:32.947Z,2600
2018-04-10T06:06:13.539Z,2672
2018-04-10T06:06:53.956Z,2740
2018-04-10T06:07:34.525Z,2780
2018-04-10T06:08:15.029Z,2820
2018-04-10T06:08:55.569Z,2848
2018-04-10T06:09:36.047Z,2872
2018-04-10T06:10:16.715Z,2900
2018-04-10T06:10:57.224Z,2920
2018-04-10T06:11:37.770Z,2936
2018-04-10T06:12:18.268Z,2968
2018-04-10T06:12:58.839Z,3004
2018-04-10T06:13:39.289Z,3048
2018-04-10T06:14:19.769Z,3108
2018-04-10T06:15:00.293Z,3200
2018-04-10T06:15:40.915Z,3252
2018-04-10T06:16:21.454Z,3328
2018-04-10T06:17:01.957Z,3424
2018-04-10T06:17:42.459Z,3516
2018-04-10T06:18:22.929Z,3576
2018-04-10T06:19:03.388Z,3644
2018-04-10T06:19:43.874Z,3692
2018-04-10T06:20:24.386Z,3724
2018-04-10T06:21:04.858Z,3740
2018-04-10T06:21:45.405Z,3748
2018-04-10T06:22:25.841Z,3684
2018-04-10T06:23:06.369Z,3592
2018-04-10T06:23:46.940Z,3536
2018-04-10T06:24:27.394Z,3500
2018-04-10T06:25:07.859Z,3492
2018-04-10T06:25:48.341Z,3500
2018-04-10T06:26:28.825Z,3528
2018-04-10T06:27:09.308Z,3560
2018-04-10T06:27:49.817Z,3584
2018-04-10T06:28:30.321Z,3608
2018-04-10T06:29:10.804Z,3632
2018-04-10T06:29:51.307Z,3656
2018-04-10T06:30:31.788Z,3672
2018-04-10T06:31:12.300Z,3688
2018-04-10T06:31:52.832Z,3692
2018-04-10T06:32:33.287Z,3680
2018-04-10T06:33:13.751Z,3668
2018-04-10T06:33:54.252Z,3644
2018-04-10T06:34:34.957Z,3640
2018-04-10T06:35:15.403Z,3640
2018-04-10T06:35:55.901Z,3668
2018-04-10T06:36:36.396Z,3708
2018-04-10T06:37:16.920Z,3780
2018-04-10T06:37:57.364Z,3864
2018-04-10T06:38:37.868Z,3916
2018-04-10T06:39:18.345Z,3976
2018-04-10T06:39:58.854Z,4028
2018-04-10T06:40:39.329Z,4060
2018-04-10T06:41:19.850Z,4096
2018-04-10T06:42:00.341Z,4112
2018-04-10T06:42:40.820Z,4124
2018-04-10T06:43:21.347Z,4112
2018-04-10T06:44:01.834Z,4096
2018-04-10T06:44:42.348Z,4084
2018-04-10T06:45:22.851Z,4080
2018-04-10T06:46:03.336Z,4080
2018-04-10T06:46:43.832Z,4084
2018-04-10T06:47:24.320Z,4096
2018-04-10T06:48:04.792Z,4100
2018-04-10T06:48:45.292Z,4124
2018-04-10T06:49:25.768Z,4168
2018-04-10T06:50:06.253Z,4192
2018-04-10T06:50:46.809Z,4216
2018-04-10T06:51:27.277Z,4252
2018-04-10T06:52:07.771Z,4264
2018-04-10T06:52:48.295Z,4284
2018-04-10T06:53:28.794Z,4300
2018-04-10T06:54:09.317Z,4308
2018-04-10T06:54:49.836Z,4304
2018-04-10T06:55:30.349Z,4312
2018-04-10T06:56:10.866Z,4328
2018-04-10T06:56:51.481Z,4344
2018-04-10T06:57:31.934Z,4356
2018-04-10T06:58:12.432Z,4364
2018-04-10T06:58:52.949Z,4372
2018-04-10T06:59:33.482Z,4396
2018-04-10T07:00:13.992Z,4440
2018-04-10T07:00:54.521Z,4488
2018-04-10T07:01:35.232Z,4556
2018-04-10T07:02:15.726Z,4656
2018-04-10T07:02:56.285Z,4720
2018-04-10T07:03:36.815Z,4796
2018-04-10T07:04:17.341Z,4896
2018-04-10T07:04:57.845Z,5032
2018-04-10T07:05:38.388Z,5080
2018-04-10T07:06:18.884Z,5120
2018-04-10T07:06:59.479Z,5180
2018-04-10T07:07:39.926Z,5252
2018-04-10T07:08:20.436Z,5272
2018-04-10T07:09:00.942Z,5288
2018-04-10T07:09:41.463Z,5316
2018-04-10T07:10:21.993Z,5380
2018-04-10T07:11:02.497Z,5336
2018-04-10T07:11:43.081Z,5356
2018-04-10T07:12:23.554Z,5452
2018-04-10T07:13:04.060Z,5380
2018-04-10T07:13:44.577Z,5380
2018-04-10T07:14:25.092Z,5400
2018-04-10T07:15:05.602Z,5444
2018-04-10T07:15:46.137Z,5404
2018-04-10T07:16:26.678Z,5440
2018-04-10T07:17:07.200Z,5444
2018-04-10T07:17:47.721Z,5508
2018-04-10T07:18:28.240Z,5384
2018-04-10T07:19:08.779Z,5372
2018-04-10T07:19:49.305Z,5392
2018-04-10T07:20:29.826Z,5328
2018-04-10T07:21:10.338Z,5348
2018-04-10T07:21:50.893Z,5408
2018-04-10T07:22:31.438Z,5388
2018-04-10T07:23:11.944Z,5320
2018-04-10T07:23:52.451Z,5296
2018-04-10T07:24:32.955Z,5276
2018-04-10T07:25:13.458Z,5264
2018-04-10T07:25:53.954Z,5252
2018-04-10T07:26:34.476Z,5268
2018-04-10T07:27:14.980Z,5296
2018-04-10T07:27:55.522Z,5340
2018-04-10T07:28:36.037Z,5472
2018-04-10T07:29:16.559Z,5564
2018-04-10T07:29:57.076Z,5800
2018-04-10T07:30:37.596Z,5856
2018-04-10T07:31:18.115Z,5940
2018-04-10T07:31:58.637Z,5980
2018-04-10T07:32:39.149Z,6064
2018-04-10T07:33:19.659Z,6112
2018-04-10T07:34:00.203Z,6112
2018-04-10T07:34:40.686Z,6128
2018-04-10T07:35:21.200Z,6108
2018-04-10T07:36:01.766Z,5904
2018-04-10T07:36:42.267Z,5928
2018-04-10T07:37:22.813Z,5788
2018-04-10T07:38:03.317Z,5792
2018-04-10T07:38:43.828Z,5728
2018-04-10T07:39:24.345Z,5576
2018-04-10T07:40:04.862Z,5456
2018-04-10T07:40:45.369Z,5352
2018-04-10T07:41:25.920Z,5276
2018-04-10T07:42:06.463Z,5268
2018-04-10T07:42:46.992Z,5184
2018-04-10T07:43:27.505Z,5184
2018-04-10T07:44:08.033Z,5288
2018-04-10T07:44:48.542Z,5332
2018-04-10T07:45:29.055Z,5648
2018-04-10T07:46:09.568Z,5720
2018-04-10T07:46:50.088Z,5792
2018-04-10T07:47:30.620Z,5816
2018-04-10T07:48:11.125Z,5932
2018-04-10T07:48:51.656Z,6024
2018-04-10T07:49:32.222Z,6132
2018-04-10T07:50:12.741Z,6196
2018-04-10T07:50:53.244Z,6216
2018-04-10T07:51:33.843Z,6308
2018-04-10T07:52:14.353Z,6332
2018-04-10T07:52:54.888Z,6348
2018-04-10T07:53:35.633Z,6368
2018-04-10T07:54:16.172Z,6328
2018-04-10T07:54:56.683Z,6364
2018-04-10T07:55:37.198Z,6336
2018-04-10T07:56:17.718Z,6292
2018-04-10T07:56:58.254Z,6280
2018-04-10T07:57:38.749Z,6220
2018-04-10T07:58:19.264Z,6228
2018-04-10T07:58:59.818Z,6304
2018-04-10T07:59:40.294Z,6416
2018-04-10T08:00:20.809Z,6436
2018-04-10T08:01:01.350Z,6440
2018-04-10T08:01:41.877Z,6428
2018-04-10T08:02:22.394Z,6500
2018-04-10T08:03:02.918Z,6496
2018-04-10T08:03:43.507Z,6568
2018-04-10T08:04:24.013Z,6616
2018-04-10T08:05:04.538Z,6668
2018-04-10T08:05:45.058Z,6732
2018-04-10T08:06:25.564Z,6788
2018-04-10T08:07:06.036Z,6848
2018-04-10T08:07:46.551Z,6908
2018-04-10T08:08:27.060Z,6972
2018-04-10T08:09:07.565Z,7020
2018-04-10T08:09:48.072Z,7056
2018-04-10T08:10:28.662Z,7068
2018-04-10T08:11:09.073Z,7112
2018-04-10T08:11:49.606Z,7144
2018-04-10T08:12:30.120Z,7184
2018-04-10T08:13:10.652Z,7212
2018-04-10T08:13:51.246Z,7240
2018-04-10T08:14:31.797Z,7260
2018-04-10T08:15:12.317Z,7296
2018-04-10T08:15:52.774Z,7284
2018-04-10T08:16:33.293Z,7252
2018-04-10T08:17:14.504Z,7244
2018-04-10T08:17:55.023Z,7216
2018-04-10T08:18:35.543Z,7200
2018-04-10T08:19:16.058Z,7188
2018-04-10T08:19:56.573Z,7144
2018-04-10T08:20:37.082Z,7084
2018-04-10T08:21:17.588Z,7056
2018-04-10T08:21:58.103Z,7008
2018-04-10T08:22:38.622Z,6932
2018-04-10T08:23:19.132Z,6848
2018-04-10T08:23:59.650Z,6828
2018-04-10T08:24:40.171Z,6792
2018-04-10T08:25:20.709Z,6736
2018-04-10T08:26:01.210Z,6656
2018-04-10T08:26:41.685Z,6612
2018-04-10T08:27:22.204Z,6580
2018-04-10T08:28:02.702Z,6556
2018-04-10T08:28:43.201Z,6532
2018-04-10T08:29:23.701Z,6492
2018-04-10T08:30:04.247Z,6460
2018-04-10T08:30:44.843Z,6440
2018-04-10T08:31:25.358Z,6420
2018-04-10T08:32:05.889Z,6368
2018-04-10T08:32:46.435Z,6380
2018-04-10T08:33:26.950Z,6380
2018-04-10T08:34:07.404Z,6360
2018-04-10T08:34:47.952Z,6352
2018-04-10T08:35:28.458Z,6360
2018-04-10T08:36:08.964Z,6384
2018-04-10T08:36:49.442Z,6396
2018-04-10T08:37:29.943Z,6392
2018-04-10T08:38:10.470Z,6360
2018-04-10T08:38:50.901Z,6324
2018-04-10T08:39:31.398Z,6256
2018-04-10T08:40:11.901Z,6224
2018-04-10T08:40:52.395Z,6124
2018-04-10T08:41:32.915Z,6012
2018-04-10T08:42:13.438Z,5972
2018-04-10T08:42:53.957Z,6000
2018-04-10T08:43:34.447Z,5960
2018-04-10T08:44:14.990Z,5968
2018-04-10T08:44:55.504Z,5992
2018-04-10T08:45:36.089Z,6040
2018-04-10T08:46:16.512Z,6072
2018-04-10T08:46:57.066Z,6100
2018-04-10T08:47:37.535Z,6072
2018-04-10T08:48:18.019Z,6072
2018-04-10T08:48:58.469Z,6000
2018-04-10T08:49:39.003Z,5868
2018-04-10T08:50:19.461Z,5840
2018-04-10T08:50:59.967Z,5844
2018-04-10T08:51:40.473Z,5836
2018-04-10T08:52:20.989Z,5840
2018-04-10T08:53:01.497Z,5840
2018-04-10T08:53:41.951Z,5832
2018-04-10T08:54:22.433Z,5844
2018-04-10T08:55:02.993Z,5880
2018-04-10T08:55:43.472Z,5940
2018-04-10T08:56:23.932Z,6008
2018-04-10T08:57:04.477Z,6044
2018-04-10T08:57:45.002Z,6080
2018-04-10T08:58:25.528Z,6116
2018-04-10T08:59:06.021Z,6200
2018-04-10T08:59:46.493Z,6212
2018-04-10T09:00:26.986Z,6112
2018-04-10T09:01:07.492Z,6136
2018-04-10T09:01:47.948Z,6176
2018-04-10T09:02:28.443Z,6248
2018-04-10T09:03:08.945Z,6284
2018-04-10T09:03:49.480Z,6288
2018-04-10T09:04:29.993Z,6336
2018-04-10T09:05:10.510Z,6220
2018-04-10T09:05:51.017Z,6404
2018-04-10T09:06:31.536Z,6484
2018-04-10T09:07:12.049Z,6412
2018-04-10T09:07:52.580Z,6600
2018-04-10T09:08:33.090Z,6624
2018-04-10T09:09:13.601Z,6652
2018-04-10T09:09:54.127Z,6688
2018-04-10T09:10:34.657Z,6676
2018-04-10T09:11:15.163Z,6584
2018-04-10T09:11:55.700Z,6644
2018-04-10T09:12:36.205Z,6648
2018-04-10T09:13:16.733Z,6772
2018-04-10T09:13:57.239Z,6856
2018-04-10T09:14:37.760Z,6976
2018-04-10T09:15:18.309Z,7048
2018-04-10T09:15:58.962Z,7044
2018-04-10T09:16:39.488Z,7008
2018-04-10T09:17:20.005Z,6940
2018-04-10T09:18:00.515Z,6860
2018-04-10T09:18:41.106Z,6864
2018-04-10T09:19:21.625Z,6884
2018-04-10T09:20:02.204Z,6888
2018-04-10T09:20:42.688Z,6920
2018-04-10T09:21:23.197Z,6992
2018-04-10T09:22:03.826Z,7048
2018-04-10T09:22:44.323Z,7136
2018-04-10T09:23:24.801Z,7248
2018-04-10T09:24:05.313Z,7352
2018-04-10T09:24:45.830Z,7484
2018-04-10T09:25:26.289Z,7696
2018-04-10T09:26:06.808Z,7768
2018-04-10T09:26:47.339Z,7896
2018-04-10T09:27:27.839Z,7928
2018-04-10T09:28:08.347Z,7936
2018-04-10T09:28:48.822Z,7920
2018-04-10T09:29:29.368Z,7984
2018-04-10T09:30:09.851Z,7944
2018-04-10T09:30:50.362Z,7940
2018-04-10T09:31:30.868Z,7900
2018-04-10T09:32:11.381Z,7856
2018-04-10T09:32:51.871Z,7788
2018-04-10T09:33:32.363Z,7720
2018-04-10T09:34:12.914Z,7652
2018-04-10T09:34:53.371Z,7576